createdAt,value
2022-07-25T00:00:42.210Z,36.92
2022-07-25T00:01:44.770Z,36.66
2022-07-25T00:02:48.446Z,36.60
2022-07-25T00:03:51.245Z,36.89
2022-07-25T00:04:53.719Z,36.62
2022-07-25T00:05:56.020Z,36.67
2022-07-25T00:06:58.348Z,37.02
2022-07-25T00:08:00.601Z,37.01
2022-07-25T00:09:02.846Z,37.03
2022-07-25T00:10:05.737Z,37.19
2022-07-25T00:11:07.946Z,37.21
2022-07-25T00:12:11.193Z,36.95
2022-07-25T00:13:13.906Z,37.18
2022-07-25T00:14:16.103Z,37.07
2022-07-25T00:15:18.332Z,37.11
2022-07-25T00:16:20.626Z,37.28
2022-07-25T00:17:22.937Z,37.39
2022-07-25T00:18:25.159Z,37.46
2022-07-25T00:19:27.648Z,37.29
2022-07-25T00:20:29.853Z,37.22
2022-07-25T00:21:32.850Z,37.35
2022-07-25T00:22:37.772Z,37.26
2022-07-25T00:23:40.024Z,37.23
2022-07-25T00:24:42.350Z,37.29
2022-07-25T00:25:44.563Z,37.57
2022-07-25T00:26:46.778Z,37.44
2022-07-25T00:27:48.991Z,37.64
2022-07-25T00:28:51.215Z,37.31
2022-07-25T00:29:53.454Z,37.50
2022-07-25T00:30:55.829Z,37.60
2022-07-25T00:31:58.087Z,37.54
2022-07-25T00:33:00.286Z,37.91
2022-07-25T00:34:04.496Z,37.92
2022-07-25T00:35:07.231Z,37.62
2022-07-25T00:36:13.128Z,37.86
2022-07-25T00:37:15.438Z,37.69
2022-07-25T00:38:18.841Z,37.56
2022-07-25T00:39:21.076Z,37.80
2022-07-25T00:40:23.423Z,37.68
2022-07-25T00:41:25.673Z,37.81
2022-07-25T00:42:27.863Z,37.77
2022-07-25T00:43:30.135Z,38.14
2022-07-25T00:44:33.567Z,37.97
2022-07-25T00:45:35.762Z,37.98
2022-07-25T00:46:39.397Z,37.89
2022-07-25T00:47:41.663Z,38.25
2022-07-25T00:48:44.607Z,38.32
2022-07-25T00:49:47.034Z,37.99
2022-07-25T00:50:49.489Z,38.22
2022-07-25T00:51:53.496Z,38.32
2022-07-25T00:52:55.810Z,38.31
2022-07-25T00:53:58.137Z,38.19
2022-07-25T00:55:01.149Z,38.28
2022-07-25T00:56:04.571Z,38.11
2022-07-25T00:57:06.805Z,38.33
2022-07-25T00:58:08.989Z,38.17
2022-07-25T00:59:11.367Z,38.47
2022-07-25T01:00:15.260Z,38.31
2022-07-25T01:01:19.783Z,38.32
2022-07-25T01:02:22.051Z,38.34
2022-07-25T01:03:24.348Z,38.54
2022-07-25T01:04:26.598Z,38.59
2022-07-25T01:05:28.807Z,38.60
2022-07-25T01:06:31.769Z,38.50
2022-07-25T01:07:35.553Z,38.70
2022-07-25T01:08:38.132Z,38.42
2022-07-25T01:09:40.311Z,38.64
2022-07-25T01:10:46.691Z,38.69
2022-07-25T01:11:49.139Z,38.76
2022-07-25T01:12:54.193Z,38.97
2022-07-25T01:13:56.493Z,39.04
2022-07-25T01:14:58.769Z,38.57
2022-07-25T01:16:01.050Z,38.80
2022-07-25T01:17:03.335Z,38.70
2022-07-25T01:18:05.833Z,38.82
2022-07-25T01:19:08.231Z,39.00
2022-07-25T01:20:17.806Z,38.91
2022-07-25T01:21:20.746Z,38.82
2022-07-25T01:22:22.975Z,39.18
2022-07-25T01:23:25.182Z,39.16
2022-07-25T01:24:27.540Z,38.93
2022-07-25T01:25:29.796Z,39.09
2022-07-25T01:26:32.050Z,39.32
2022-07-25T01:27:36.780Z,39.10
2022-07-25T01:28:39.269Z,39.24
2022-07-25T01:29:41.518Z,39.07
2022-07-25T01:30:44.099Z,39.17
2022-07-25T01:31:46.463Z,39.24
2022-07-25T01:32:48.776Z,39.35
2022-07-25T01:33:50.982Z,39.52
2022-07-25T01:34:53.263Z,39.49
2022-07-25T01:35:55.460Z,39.45
2022-07-25T01:36:57.646Z,39.60
2022-07-25T01:37:59.875Z,39.44
2022-07-25T01:39:05.046Z,39.54
2022-07-25T01:40:09.202Z,39.61
2022-07-25T01:41:14.457Z,39.68
2022-07-25T01:42:25.103Z,39.57
2022-07-25T01:43:27.304Z,39.50
2022-07-25T01:44:29.581Z,39.67
2022-07-25T01:45:31.847Z,39.39
2022-07-25T01:46:34.166Z,39.44
2022-07-25T01:47:36.478Z,39.51
2022-07-25T01:48:40.225Z,39.84
2022-07-25T01:49:42.569Z,39.75
2022-07-25T01:50:44.796Z,39.69
2022-07-25T01:51:47.059Z,39.91
2022-07-25T01:52:50.882Z,39.83
2022-07-25T01:53:53.170Z,39.90
2022-07-25T01:54:55.540Z,39.70
2022-07-25T01:55:58.734Z,39.77
2022-07-25T01:57:05.028Z,39.67
2022-07-25T01:58:08.274Z,39.80
2022-07-25T01:59:10.777Z,39.96
2022-07-25T02:00:15.197Z,39.83
2022-07-25T02:01:17.480Z,40.16
2022-07-25T02:02:21.564Z,40.15
2022-07-25T02:03:32.103Z,40.22
2022-07-25T02:04:35.785Z,40.07
2022-07-25T02:05:38.078Z,40.13
2022-07-25T02:06:41.597Z,40.11
2022-07-25T02:07:43.864Z,40.41
2022-07-25T02:08:46.078Z,40.37
2022-07-25T02:09:56.276Z,40.26
2022-07-25T02:10:59.706Z,40.35
2022-07-25T02:12:02.143Z,40.38
2022-07-25T02:13:04.658Z,40.51
2022-07-25T02:14:07.838Z,40.29
2022-07-25T02:15:10.714Z,40.58
2022-07-25T02:16:13.850Z,40.44
2022-07-25T02:17:16.659Z,40.68
2022-07-25T02:18:21.325Z,40.44
2022-07-25T02:19:23.595Z,40.43
2022-07-25T02:20:25.765Z,40.74
2022-07-25T02:21:28.004Z,40.70
2022-07-25T02:22:30.289Z,40.66
2022-07-25T02:23:33.137Z,40.62
2022-07-25T02:24:37.229Z,40.80
2022-07-25T02:25:39.608Z,40.92
2022-07-25T02:26:41.944Z,40.72
2022-07-25T02:27:44.228Z,40.94
2022-07-25T02:28:46.544Z,40.92
2022-07-25T02:29:51.758Z,40.70
2022-07-25T02:30:54.131Z,40.67
2022-07-25T02:31:56.428Z,40.78
2022-07-25T02:32:58.983Z,41.02
2022-07-25T02:34:01.229Z,40.79
2022-07-25T02:35:04.609Z,41.09
2022-07-25T02:36:15.225Z,40.89
2022-07-25T02:37:17.493Z,40.96
2022-07-25T02:38:19.804Z,41.17
2022-07-25T02:39:22.061Z,41.26
2022-07-25T02:40:24.254Z,41.02
2022-07-25T02:41:26.551Z,41.30
2022-07-25T02:42:28.740Z,41.08
2022-07-25T02:43:31.264Z,41.11
2022-07-25T02:44:33.479Z,41.25
2022-07-25T02:45:35.783Z,41.17
2022-07-25T02:46:38.304Z,41.39
2022-07-25T02:47:40.729Z,41.28
2022-07-25T02:48:43.037Z,41.19
2022-07-25T02:49:45.705Z,41.32
2022-07-25T02:50:48.009Z,41.20
2022-07-25T02:51:50.223Z,41.41
2022-07-25T02:52:52.450Z,41.47
2022-07-25T02:53:57.669Z,41.26
2022-07-25T02:55:02.207Z,41.10
2022-07-25T02:56:06.244Z,41.43
2022-07-25T02:57:08.437Z,41.41
2022-07-25T02:58:11.367Z,41.73
2022-07-25T02:59:13.621Z,41.58
2022-07-25T03:00:16.618Z,41.51
2022-07-25T03:01:18.926Z,41.66
2022-07-25T03:02:21.165Z,41.68
2022-07-25T03:03:23.410Z,41.59
2022-07-25T03:04:25.824Z,41.41
2022-07-25T03:05:28.130Z,41.48
2022-07-25T03:06:30.314Z,41.65
2022-07-25T03:07:32.510Z,41.62
2022-07-25T03:08:37.017Z,41.66
2022-07-25T03:09:39.297Z,41.87
2022-07-25T03:10:43.436Z,41.79
2022-07-25T03:11:45.669Z,41.58
2022-07-25T03:12:47.872Z,41.83
2022-07-25T03:13:50.070Z,42.03
2022-07-25T03:14:52.312Z,41.87
2022-07-25T03:15:56.705Z,42.07
2022-07-25T03:16:59.017Z,41.69
2022-07-25T03:18:01.251Z,41.73
2022-07-25T03:19:03.588Z,41.70
2022-07-25T03:20:07.088Z,41.93
2022-07-25T03:21:09.303Z,41.80
2022-07-25T03:22:11.585Z,41.89
2022-07-25T03:23:13.955Z,41.96
2022-07-25T03:24:17.672Z,41.95
2022-07-25T03:25:21.678Z,41.98
2022-07-25T03:26:24.259Z,41.80
2022-07-25T03:27:27.889Z,42.10
2022-07-25T03:28:30.097Z,41.80
2022-07-25T03:29:32.288Z,41.86
2022-07-25T03:30:34.546Z,42.03
2022-07-25T03:31:36.820Z,41.98
2022-07-25T03:32:39.668Z,42.04
2022-07-25T03:33:41.863Z,42.24
2022-07-25T03:34:44.667Z,42.15
2022-07-25T03:35:46.966Z,41.98
2022-07-25T03:36:49.364Z,42.06
2022-07-25T03:37:51.695Z,42.10
2022-07-25T03:38:55.967Z,42.23
2022-07-25T03:39:58.243Z,42.29
2022-07-25T03:41:00.447Z,42.26
2022-07-25T03:42:02.644Z,42.22
2022-07-25T03:43:04.884Z,42.24
2022-07-25T03:44:07.441Z,42.01
2022-07-25T03:45:10.225Z,42.42
2022-07-25T03:46:14.824Z,42.23
2022-07-25T03:47:20.630Z,42.48
2022-07-25T03:48:25.030Z,42.41
2022-07-25T03:49:27.251Z,42.24
2022-07-25T03:50:30.275Z,42.43
2022-07-25T03:51:32.550Z,42.55
2022-07-25T03:52:34.810Z,42.48
2022-07-25T03:53:56.982Z,42.16
2022-07-25T03:54:59.156Z,42.33
2022-07-25T03:56:01.346Z,42.40
2022-07-25T03:57:03.694Z,42.29
2022-07-25T03:58:06.015Z,42.21
2022-07-25T03:59:09.942Z,42.51
2022-07-25T04:00:12.687Z,42.14
2022-07-25T04:01:15.010Z,42.38
2022-07-25T04:02:17.381Z,42.42
2022-07-25T04:03:19.881Z,42.36
2022-07-25T04:04:22.108Z,42.33
2022-07-25T04:05:24.513Z,42.35
2022-07-25T04:06:26.846Z,42.64
2022-07-25T04:07:29.023Z,42.66
2022-07-25T04:08:33.463Z,42.25
2022-07-25T04:09:35.664Z,42.41
2022-07-25T04:10:37.849Z,42.55
2022-07-25T04:11:40.145Z,42.39
2022-07-25T04:12:42.382Z,42.34
2022-07-25T04:13:44.663Z,42.65
2022-07-25T04:14:46.904Z,42.43
2022-07-25T04:15:49.087Z,42.37
2022-07-25T04:16:53.910Z,42.38
2022-07-25T04:17:56.143Z,42.43
2022-07-25T04:18:58.423Z,42.34
2022-07-25T04:20:02.776Z,42.11
2022-07-25T04:21:08.471Z,42.32
2022-07-25T04:22:14.506Z,42.34
2022-07-25T04:23:16.707Z,42.19
2022-07-25T04:24:18.991Z,41.98
2022-07-25T04:25:21.239Z,42.26
2022-07-25T04:26:23.586Z,42.38
2022-07-25T04:27:25.852Z,42.21
2022-07-25T04:28:28.615Z,42.35
2022-07-25T04:29:30.919Z,42.03
2022-07-25T04:30:33.108Z,42.29
2022-07-25T04:31:35.387Z,42.36
2022-07-25T04:32:37.685Z,42.46
2022-07-25T04:33:40.884Z,42.38
2022-07-25T04:34:44.799Z,42.02
2022-07-25T04:35:47.558Z,42.05
2022-07-25T04:36:49.806Z,41.88
2022-07-25T04:37:52.039Z,41.82
2022-07-25T04:38:54.234Z,41.95
2022-07-25T04:39:56.427Z,42.04
2022-07-25T04:40:58.897Z,41.65
2022-07-25T04:42:01.675Z,41.91
2022-07-25T04:43:04.707Z,41.75
2022-07-25T04:44:08.511Z,41.62
2022-07-25T04:45:11.544Z,41.50
2022-07-25T04:46:19.072Z,41.32
2022-07-25T04:47:21.290Z,41.18
2022-07-25T04:48:23.640Z,41.44
2022-07-25T04:49:25.928Z,40.99
2022-07-25T04:50:29.622Z,41.19
2022-07-25T04:51:31.806Z,41.32
2022-07-25T04:52:34.058Z,40.99
2022-07-25T04:53:36.272Z,40.77
2022-07-25T04:54:38.475Z,40.88
2022-07-25T04:55:40.932Z,40.64
2022-07-25T04:56:43.111Z,40.41
2022-07-25T04:57:47.115Z,40.90
2022-07-25T04:58:49.553Z,40.72
2022-07-25T04:59:51.995Z,40.23
2022-07-25T05:00:54.257Z,40.29
2022-07-25T05:01:56.555Z,40.19
2022-07-25T05:02:59.295Z,40.24
2022-07-25T05:04:01.536Z,40.09
2022-07-25T05:05:04.654Z,39.90
2022-07-25T05:06:07.244Z,39.86
2022-07-25T05:07:09.442Z,39.73
2022-07-25T05:08:11.669Z,39.51
2022-07-25T05:09:13.853Z,39.49
2022-07-25T05:10:16.113Z,39.51
2022-07-25T05:11:18.295Z,39.31
2022-07-25T05:12:20.547Z,39.24
2022-07-25T05:13:22.749Z,39.10
2022-07-25T05:14:25.324Z,38.88
2022-07-25T05:15:27.523Z,39.25
2022-07-25T05:16:29.867Z,39.29
2022-07-25T05:17:32.270Z,38.97
2022-07-25T05:18:37.146Z,39.10
2022-07-25T05:19:39.336Z,38.91
2022-07-25T05:20:41.587Z,38.69
2022-07-25T05:21:43.794Z,38.62
2022-07-25T05:22:46.506Z,38.48
2022-07-25T05:23:48.731Z,38.56
2022-07-25T05:24:53.935Z,38.48
2022-07-25T05:25:56.204Z,38.54
2022-07-25T05:26:58.432Z,38.34
2022-07-25T05:28:02.129Z,38.24
2022-07-25T05:29:04.372Z,38.04
2022-07-25T05:30:08.060Z,37.69
2022-07-25T05:31:10.416Z,37.76
2022-07-25T05:32:12.684Z,37.53
2022-07-25T05:33:15.151Z,37.91
2022-07-25T05:34:17.352Z,37.51
2022-07-25T05:35:19.545Z,37.36
2022-07-25T05:36:21.736Z,37.38
2022-07-25T05:37:24.054Z,37.16
2022-07-25T05:38:26.286Z,36.98
2022-07-25T05:39:28.467Z,36.88
2022-07-25T05:40:30.732Z,36.92
2022-07-25T05:41:32.970Z,36.73
2022-07-25T05:42:35.914Z,36.76
2022-07-25T05:43:39.466Z,36.56
2022-07-25T05:44:41.751Z,36.31
2022-07-25T05:45:44.309Z,36.30
2022-07-25T05:46:46.521Z,36.11
2022-07-25T05:47:48.767Z,35.89
2022-07-25T05:48:50.979Z,35.78
2022-07-25T05:49:54.517Z,35.91
2022-07-25T05:50:57.787Z,35.91
2022-07-25T05:52:00.025Z,35.54
2022-07-25T05:53:02.276Z,35.41
2022-07-25T05:54:04.841Z,35.18
2022-07-25T05:55:07.647Z,35.48
2022-07-25T05:56:10.614Z,35.50
2022-07-25T05:57:13.515Z,34.88
2022-07-25T05:58:15.776Z,34.88
2022-07-25T05:59:17.969Z,34.40
2022-07-25T06:00:20.367Z,34.47
2022-07-25T06:01:22.672Z,34.28
2022-07-25T06:02:25.179Z,34.27
2022-07-25T06:03:27.555Z,33.91
2022-07-25T06:04:30.536Z,34.02
2022-07-25T06:05:32.722Z,34.05
2022-07-25T06:06:35.446Z,33.78
2022-07-25T06:07:37.703Z,33.68
2022-07-25T06:08:39.924Z,33.33
2022-07-25T06:09:42.987Z,33.53
2022-07-25T06:10:45.229Z,33.11
2022-07-25T06:11:54.519Z,33.02
2022-07-25T06:13:02.436Z,32.83
2022-07-25T06:14:04.832Z,33.17
2022-07-25T06:15:22.091Z,32.79
2022-07-25T06:16:25.594Z,33.12
2022-07-25T06:17:32.226Z,32.78
2022-07-25T06:18:34.779Z,32.81
2022-07-25T06:19:39.197Z,32.75
2022-07-25T06:20:41.392Z,33.02
2022-07-25T06:21:43.585Z,32.71
2022-07-25T06:22:45.791Z,32.50
2022-07-25T06:23:48.045Z,32.43
2022-07-25T06:24:50.226Z,32.46
2022-07-25T06:25:52.537Z,31.96
2022-07-25T06:26:54.723Z,32.23
2022-07-25T06:27:57.017Z,31.73
2022-07-25T06:29:01.885Z,31.77
2022-07-25T06:30:06.625Z,32.01
2022-07-25T06:31:13.649Z,31.55
2022-07-25T06:32:15.911Z,31.55
2022-07-25T06:33:18.279Z,31.39
2022-07-25T06:34:20.474Z,31.27
2022-07-25T06:35:22.777Z,31.27
2022-07-25T06:36:32.739Z,30.80
2022-07-25T06:37:40.525Z,30.90
2022-07-25T06:38:42.806Z,30.67
2022-07-25T06:39:46.060Z,30.52
2022-07-25T06:40:48.570Z,30.21
2022-07-25T06:41:51.425Z,30.41
2022-07-25T06:42:53.688Z,30.24
2022-07-25T06:43:56.470Z,30.13
2022-07-25T06:44:58.696Z,30.13
2022-07-25T06:46:01.242Z,30.05
2022-07-25T06:47:03.734Z,30.09
2022-07-25T06:48:06.125Z,30.00
2022-07-25T06:49:08.486Z,29.77
2022-07-25T06:50:25.996Z,29.67
2022-07-25T06:51:28.278Z,29.82
2022-07-25T06:52:30.474Z,29.55
2022-07-25T06:53:32.947Z,29.60
2022-07-25T06:54:35.333Z,29.24
2022-07-25T06:55:37.746Z,29.13
2022-07-25T06:56:40.006Z,29.07
2022-07-25T06:57:43.138Z,28.98
2022-07-25T06:58:45.348Z,28.64
2022-07-25T06:59:47.587Z,28.85
2022-07-25T07:00:53.254Z,28.89
2022-07-25T07:01:55.564Z,28.73
2022-07-25T07:03:01.508Z,28.20
2022-07-25T07:04:05.283Z,28.19
2022-07-25T07:05:08.141Z,28.23
2022-07-25T07:06:10.756Z,28.15
2022-07-25T07:07:13.663Z,28.14
2022-07-25T07:08:15.895Z,27.64
2022-07-25T07:09:18.116Z,27.54
2022-07-25T07:10:22.207Z,27.84
2022-07-25T07:11:24.591Z,27.58
2022-07-25T07:12:26.803Z,27.27
2022-07-25T07:13:29.217Z,27.05
2022-07-25T07:14:31.439Z,27.29
2022-07-25T07:15:34.081Z,26.86
2022-07-25T07:16:36.823Z,26.91
2022-07-25T07:17:39.354Z,26.82
2022-07-25T07:18:48.829Z,27.02
2022-07-25T07:19:51.892Z,26.39
2022-07-25T07:20:54.530Z,26.56
2022-07-25T07:21:56.976Z,26.47
2022-07-25T07:22:59.177Z,26.36
2022-07-25T07:24:01.354Z,26.08
2022-07-25T07:25:05.833Z,25.92
2022-07-25T07:26:08.515Z,25.95
2022-07-25T07:27:10.698Z,25.56
2022-07-25T07:28:13.764Z,25.29
2022-07-25T07:29:15.939Z,25.51
2022-07-25T07:30:23.775Z,25.74
2022-07-25T07:31:27.738Z,25.64
2022-07-25T07:32:30.926Z,25.06
2022-07-25T07:33:33.627Z,25.30
2022-07-25T07:34:36.424Z,25.08
2022-07-25T07:35:38.617Z,25.02
2022-07-25T07:36:41.681Z,24.97
2022-07-25T07:37:44.615Z,24.63
2022-07-25T07:38:48.385Z,24.67
2022-07-25T07:39:50.560Z,24.72
2022-07-25T07:40:54.054Z,24.72
2022-07-25T07:41:56.227Z,24.48
2022-07-25T07:43:01.440Z,24.65
2022-07-25T07:44:03.856Z,24.25
2022-07-25T07:45:26.549Z,24.48
2022-07-25T07:46:28.854Z,24.02
2022-07-25T07:47:31.194Z,24.21
2022-07-25T07:48:33.942Z,24.17
2022-07-25T07:49:37.155Z,24.12
2022-07-25T07:50:39.559Z,24.18
2022-07-25T07:51:45.351Z,23.98
2022-07-25T07:52:48.508Z,24.15
2022-07-25T07:54:09.419Z,24.09
2022-07-25T07:55:30.868Z,23.87
2022-07-25T07:56:33.063Z,23.88
2022-07-25T07:57:35.240Z,23.67
2022-07-25T07:58:37.437Z,23.49
2022-07-25T07:59:39.670Z,23.66
2022-07-25T08:00:46.495Z,23.75
2022-07-25T08:01:48.787Z,23.62
2022-07-25T08:02:52.991Z,23.70
2022-07-25T08:03:55.249Z,23.67
2022-07-25T08:04:57.721Z,23.41
2022-07-25T08:05:59.961Z,23.37
2022-07-25T08:07:02.139Z,23.43
2022-07-25T08:08:05.174Z,23.17
2022-07-25T08:09:07.615Z,23.27
2022-07-25T08:10:10.881Z,23.21
2022-07-25T08:11:13.438Z,23.14
2022-07-25T08:12:15.614Z,23.17
2022-07-25T08:13:23.222Z,23.41
2022-07-25T08:14:25.437Z,22.98
2022-07-25T08:15:27.676Z,22.78
2022-07-25T08:16:29.890Z,22.83
2022-07-25T08:17:32.099Z,23.04
2022-07-25T08:18:34.432Z,22.69
2022-07-25T08:19:37.242Z,22.91
2022-07-25T08:20:39.757Z,22.53
2022-07-25T08:21:41.996Z,22.89
2022-07-25T08:22:47.023Z,22.60
2022-07-25T08:23:49.453Z,22.53
2022-07-25T08:24:51.687Z,22.52
2022-07-25T08:25:54.531Z,22.26
2022-07-25T08:26:56.715Z,22.13
2022-07-25T08:27:59.257Z,22.48
2022-07-25T08:29:18.699Z,22.20
2022-07-25T08:30:21.839Z,22.00
2022-07-25T08:31:24.347Z,21.92
2022-07-25T08:32:27.784Z,21.77
2022-07-25T08:33:30.035Z,21.87
2022-07-25T08:34:32.532Z,21.84
2022-07-25T08:35:35.257Z,21.84
2022-07-25T08:36:37.576Z,21.74
2022-07-25T08:37:39.830Z,21.25
2022-07-25T08:38:42.099Z,21.25
2022-07-25T08:39:45.587Z,21.37
2022-07-25T08:40:48.505Z,21.48
2022-07-25T08:41:54.480Z,21.35
2022-07-25T08:42:58.562Z,21.06
2022-07-25T08:44:03.594Z,20.81
2022-07-25T08:45:08.621Z,21.11
2022-07-25T08:46:14.021Z,21.02
2022-07-25T08:47:16.569Z,21.34
2022-07-25T08:48:21.630Z,21.34
2022-07-25T08:49:23.957Z,21.34
2022-07-25T08:50:28.793Z,21.28
2022-07-25T08:51:32.531Z,21.13
2022-07-25T08:52:37.304Z,20.49
2022-07-25T08:53:40.511Z,20.41
2022-07-25T08:54:45.226Z,20.30
2022-07-25T08:55:48.414Z,20.42
2022-07-25T08:56:51.005Z,20.58
2022-07-25T08:57:54.600Z,20.37
2022-07-25T08:58:59.061Z,20.08
2022-07-25T09:00:02.603Z,20.30
2022-07-25T09:01:04.886Z,19.76
2022-07-25T09:02:08.973Z,19.74
2022-07-25T09:03:11.595Z,20.00
2022-07-25T09:04:14.142Z,19.79
2022-07-25T09:05:18.755Z,19.63
2022-07-25T09:06:22.667Z,19.70
2022-07-25T09:07:41.354Z,19.83
2022-07-25T09:08:57.933Z,19.71
2022-07-25T09:10:13.051Z,19.76
2022-07-25T09:11:26.395Z,19.53
2022-07-25T09:12:29.835Z,19.35
2022-07-25T09:13:38.557Z,19.12
2022-07-25T09:14:43.386Z,19.25
2022-07-25T09:15:56.657Z,18.92
2022-07-25T09:17:07.244Z,18.94
2022-07-25T09:18:27.362Z,19.32
2022-07-25T09:19:31.712Z,18.83
2022-07-25T09:20:48.775Z,18.49
2022-07-25T09:22:10.330Z,19.46
2022-07-25T09:23:15.759Z,18.80
2022-07-25T09:24:18.977Z,18.52
2022-07-25T09:25:23.624Z,18.48
2022-07-25T09:26:25.824Z,18.20
2022-07-25T09:27:34.645Z,17.94
2022-07-25T09:28:56.239Z,18.82
2022-07-25T09:29:58.451Z,18.41
2022-07-25T09:31:02.228Z,18.12
2022-07-25T09:32:22.156Z,17.88
2022-07-25T09:33:26.292Z,17.78
2022-07-25T09:34:37.936Z,17.98
2022-07-25T09:35:41.456Z,18.02
2022-07-25T09:36:54.663Z,17.92
2022-07-25T09:38:10.891Z,18.21
2022-07-25T09:39:13.114Z,17.91
2022-07-25T09:40:16.338Z,17.75
2022-07-25T09:41:18.560Z,17.92
2022-07-25T09:42:32.391Z,18.08
2022-07-25T09:43:43.507Z,18.10
2022-07-25T09:45:12.584Z,18.25
2022-07-25T09:46:16.061Z,17.90
2022-07-25T09:47:18.426Z,17.76
2022-07-25T09:48:21.231Z,17.49
2022-07-25T09:49:23.428Z,17.66
2022-07-25T09:50:27.975Z,17.77
2022-07-25T09:51:30.771Z,17.36
2022-07-25T09:52:33.938Z,17.40
2022-07-25T09:53:36.329Z,17.17
2022-07-25T09:54:39.867Z,17.14
2022-07-25T09:55:42.097Z,17.09
2022-07-25T09:56:44.303Z,16.65
2022-07-25T09:57:49.728Z,16.76
2022-07-25T09:58:52.994Z,17.26
2022-07-25T09:59:56.168Z,17.28
2022-07-25T10:01:05.251Z,17.28
2022-07-25T10:02:15.006Z,16.86
2022-07-25T10:03:35.783Z,17.21
2022-07-25T10:04:59.897Z,17.15
2022-07-25T10:06:41.099Z,17.44
2022-07-25T10:07:47.618Z,17.02
2022-07-25T10:08:51.367Z,17.36
2022-07-25T10:09:55.753Z,16.84
2022-07-25T10:10:58.270Z,16.87
2022-07-25T10:12:05.041Z,17.03
2022-07-25T10:13:11.548Z,16.68
2022-07-25T10:14:14.052Z,16.91
2022-07-25T10:15:16.306Z,16.89
2022-07-25T10:16:21.355Z,16.85
2022-07-25T10:17:23.724Z,16.77
2022-07-25T10:18:31.200Z,17.06
2022-07-25T10:19:58.306Z,17.11
2022-07-25T10:21:28.725Z,17.09
2022-07-25T10:22:58.591Z,17.32
2022-07-25T10:24:06.210Z,17.43
2022-07-25T10:25:27.133Z,17.50
2022-07-25T10:26:30.086Z,16.89
2022-07-25T10:27:44.745Z,16.71
2022-07-25T10:28:48.511Z,16.64
2022-07-25T10:29:54.453Z,16.70
2022-07-25T10:30:59.786Z,16.76
2022-07-25T10:32:13.256Z,17.01
2022-07-25T10:33:18.741Z,16.88
2022-07-25T10:34:33.893Z,16.81
2022-07-25T10:35:36.633Z,16.87
2022-07-25T10:36:56.388Z,16.93
2022-07-25T10:37:59.628Z,17.39
2022-07-25T10:39:02.275Z,17.03
2022-07-25T10:40:04.784Z,17.30
2022-07-25T10:41:09.167Z,17.14
2022-07-25T10:42:16.426Z,17.29
2022-07-25T10:43:32.307Z,17.40
2022-07-25T10:44:44.896Z,17.42
2022-07-25T10:45:57.021Z,17.39
2022-07-25T10:47:06.789Z,17.14
2022-07-25T10:48:27.670Z,17.45
2022-07-25T10:49:36.528Z,16.94
2022-07-25T10:51:13.182Z,17.52
2022-07-25T10:52:17.862Z,17.35
2022-07-25T10:53:51.430Z,17.25
2022-07-25T10:54:58.624Z,16.87
2022-07-25T10:56:06.963Z,17.21
2022-07-25T10:57:15.824Z,16.96
2022-07-25T10:58:18.521Z,16.96
2022-07-25T10:59:40.106Z,17.26
2022-07-25T11:00:45.435Z,17.00
2022-07-25T11:01:51.013Z,17.39
2022-07-25T11:02:57.546Z,17.25
2022-07-25T11:04:06.315Z,17.66
2022-07-25T11:05:09.056Z,17.54
2022-07-25T11:06:15.568Z,17.72
2022-07-25T11:07:18.069Z,17.58
2022-07-25T11:08:30.938Z,17.54
2022-07-25T11:09:34.340Z,17.87
2022-07-25T11:10:36.631Z,17.85
2022-07-25T11:11:41.179Z,17.82
2022-07-25T11:12:46.276Z,17.81
2022-07-25T11:13:50.288Z,17.63
2022-07-25T11:15:02.749Z,17.88
2022-07-25T11:16:06.923Z,17.58
2022-07-25T11:17:22.631Z,17.67
2022-07-25T11:18:41.744Z,17.56
2022-07-25T11:20:00.273Z,17.54
2022-07-25T11:21:06.585Z,17.66
2022-07-25T11:22:09.635Z,17.53
2022-07-25T11:23:11.897Z,17.55
2022-07-25T11:24:14.289Z,17.26
2022-07-25T11:25:16.569Z,17.45
2022-07-25T11:26:19.224Z,17.94
2022-07-25T11:27:28.134Z,17.74
2022-07-25T11:28:53.572Z,18.22
2022-07-25T11:30:09.682Z,18.44
2022-07-25T11:31:14.564Z,18.19
2022-07-25T11:32:17.067Z,18.49
2022-07-25T11:33:19.429Z,18.64
2022-07-25T11:34:24.780Z,18.55
2022-07-25T11:35:33.854Z,18.78
2022-07-25T11:36:36.940Z,18.34
2022-07-25T11:37:43.777Z,18.32
2022-07-25T11:38:49.745Z,18.29
2022-07-25T11:39:56.236Z,18.37
2022-07-25T11:40:58.860Z,18.26
2022-07-25T11:42:03.558Z,17.94
2022-07-25T11:43:05.791Z,17.91
2022-07-25T11:44:08.485Z,18.07
2022-07-25T11:45:31.201Z,18.08
2022-07-25T11:46:44.786Z,18.26
2022-07-25T11:47:49.380Z,17.98
2022-07-25T11:48:51.661Z,18.43
2022-07-25T11:49:56.061Z,17.99
2022-07-25T11:50:58.295Z,17.91
2022-07-25T11:52:00.527Z,17.54
2022-07-25T11:53:05.109Z,17.75
2022-07-25T11:54:11.202Z,17.82
2022-07-25T11:55:17.253Z,18.03
2022-07-25T11:57:47.139Z,18.03
2022-07-25T11:59:00.257Z,18.31
2022-07-25T12:00:07.242Z,17.81
2022-07-25T12:01:15.594Z,17.77
2022-07-25T12:02:25.469Z,18.04
2022-07-25T12:03:38.023Z,17.92
2022-07-25T12:04:40.436Z,18.02
2022-07-25T12:05:43.285Z,18.05
2022-07-25T12:06:47.957Z,17.73
2022-07-25T12:07:53.212Z,18.11
2022-07-25T12:08:55.401Z,17.99
2022-07-25T12:09:58.253Z,18.38
2022-07-25T12:12:17.309Z,18.05
2022-07-25T12:13:26.314Z,17.99
2022-07-25T12:14:32.306Z,18.05
2022-07-25T12:15:40.230Z,18.21
2022-07-25T12:16:42.702Z,18.11
2022-07-25T12:17:46.429Z,18.00
2022-07-25T12:18:48.612Z,18.14
2022-07-25T12:19:50.800Z,17.87
2022-07-25T12:20:53.765Z,18.16
2022-07-25T12:21:55.960Z,18.05
2022-07-25T12:23:01.971Z,18.18
2022-07-25T12:24:06.542Z,18.48
2022-07-25T12:25:09.756Z,18.34
2022-07-25T12:26:13.619Z,18.52
2022-07-25T12:27:15.880Z,18.67
2022-07-25T12:28:18.197Z,18.65
2022-07-25T12:29:20.381Z,18.71
2022-07-25T12:30:22.634Z,18.85
2022-07-25T12:31:28.740Z,18.76
2022-07-25T12:32:31.095Z,19.05
2022-07-25T12:33:33.681Z,18.83
2022-07-25T12:34:35.864Z,18.61
2022-07-25T12:35:38.326Z,18.72
2022-07-25T12:36:44.884Z,18.57
2022-07-25T12:37:47.394Z,18.66
2022-07-25T12:38:49.798Z,18.86
2022-07-25T12:39:52.001Z,18.40
2022-07-25T12:40:54.825Z,18.57
2022-07-25T12:41:57.135Z,18.52
2022-07-25T12:43:00.351Z,18.83
2022-07-25T12:44:04.357Z,19.03
2022-07-25T12:45:08.494Z,18.58
2022-07-25T12:46:10.796Z,18.79
2022-07-25T12:47:13.141Z,18.82
2022-07-25T12:48:15.541Z,18.98
2022-07-25T12:49:17.867Z,19.23
2022-07-25T12:50:22.706Z,19.23
2022-07-25T12:51:24.906Z,19.00
2022-07-25T12:52:27.311Z,19.29
2022-07-25T12:53:29.583Z,19.16
2022-07-25T12:54:31.989Z,19.27
2022-07-25T12:55:34.555Z,19.36
2022-07-25T12:56:36.752Z,19.36
2022-07-25T12:57:39.435Z,19.43
2022-07-25T12:58:41.645Z,19.67
2022-07-25T12:59:44.136Z,19.85
2022-07-25T13:00:46.816Z,19.73
2022-07-25T13:01:49.184Z,19.64
2022-07-25T13:02:53.343Z,19.52
2022-07-25T13:03:55.909Z,19.58
2022-07-25T13:04:58.091Z,19.64
2022-07-25T13:06:00.471Z,19.82
2022-07-25T13:07:02.859Z,19.82
2022-07-25T13:08:06.294Z,19.93
2022-07-25T13:09:08.966Z,19.83
2022-07-25T13:10:12.783Z,19.66
2022-07-25T13:11:15.032Z,19.67
2022-07-25T13:12:17.232Z,19.96
2022-07-25T13:13:19.437Z,20.11
2022-07-25T13:14:21.721Z,20.01
2022-07-25T13:15:28.254Z,20.02
2022-07-25T13:16:30.640Z,19.98
2022-07-25T13:17:33.282Z,20.19
2022-07-25T13:18:35.541Z,19.88
2022-07-25T13:19:37.839Z,19.88
2022-07-25T13:20:40.058Z,19.97
2022-07-25T13:21:43.505Z,19.92
2022-07-25T13:22:45.775Z,19.89
2022-07-25T13:23:47.985Z,20.21
2022-07-25T13:24:50.375Z,20.09
2022-07-25T13:25:52.862Z,20.08
2022-07-25T13:26:55.204Z,20.12
2022-07-25T13:27:57.418Z,19.95
2022-07-25T13:29:00.234Z,19.89
2022-07-25T13:30:02.516Z,19.88
2022-07-25T13:31:07.094Z,20.00
2022-07-25T13:32:09.337Z,19.90
2022-07-25T13:33:11.557Z,20.16
2022-07-25T13:34:13.918Z,20.09
2022-07-25T13:35:20.258Z,20.23
2022-07-25T13:36:22.995Z,20.12
2022-07-25T13:37:25.190Z,20.01
2022-07-25T13:38:27.406Z,19.94
2022-07-25T13:39:29.818Z,19.91
2022-07-25T13:40:32.462Z,20.13
2022-07-25T13:41:34.765Z,20.24
2022-07-25T13:42:36.969Z,20.25
2022-07-25T13:43:39.874Z,20.01
2022-07-25T13:44:42.094Z,19.96
2022-07-25T13:45:44.536Z,20.12
2022-07-25T13:46:50.357Z,20.08
2022-07-25T13:48:12.109Z,20.22
2022-07-25T13:49:14.968Z,20.02
2022-07-25T13:50:17.228Z,20.24
2022-07-25T13:51:19.580Z,20.38